Montevideo, MN

3:02 AM CST on February 08, 2016 (GMT -0600)
Near Chinhinta Park | | Change Station
CLOSE
Current Station
Personal Weather Station
Location: Montevideo, MN
Elevation: 1024 ft
Nearby Weather Stations
Active Advisory: Winter Storm Warning

Elev 1024 ft 44.94 °N, 95.72 °W | Updated 7 seconds ago

Light Snow
Light Snow
13.1 °F
Feels Like -1 °F
N
12.0
Wind Variable Wind from NNW
Gusts 27.0 mph

Today
High -- | Low -- °F
--% Chance of Precip.
Yesterday
High -- | Low -- °F
Precip. -- in
Pressure 29.98 in
Visibility 1.0 miles
Clouds Mostly Cloudy 800 ft
Overcast 1300 ft
Windchill -1 °F
Dew Point 9 °F
Humidity 83%
Rainfall 0.00 in
Snow Depth Not available.
7:34 AM 5:40 PM
Waning Crescent, 0% visible
METAR KMVE 080854Z AUTO 01023G31KT 1SM -SN BKN008 OVC013 M10/M11 A2998 RMK AO2
Pressure 29.98 in
Visibility 1.0 miles
Clouds Mostly Cloudy 800 ft
Overcast 1300 ft
Windchill -1 °F
Dew Point 9 °F
Humidity 83%
Rainfall 0.00 in
Snow Depth Not available.
7:34 AM 5:40 PM
Waning Crescent, 0% visible
METAR KMVE 080854Z AUTO 01023G31KT 1SM -SN BKN008 OVC013 M10/M11 A2998 RMK AO2

10-Day Weather Forecast

Almanac

Astronomy

Feb. 08, 2016 Rise Set
Actual Time
Civil Twilight
Nautical Twilight
Astronomical Twilight
Moon
Length of Visible Light
Length of Day
Tomorrow will be .
, % of the Moon is Illuminated

Today's Extremes

State Highs State Lows

Community

WunderPhotos

Upload Photos

1,891,412 photos uploaded!

WunderBlog® & News

Nearby

Air Quality

  Air Quality AQ Index Pollutant
Not available.

Snow Depth

Station Depth Elevation

Earthquake Activity

City Distance Mag. Time & Date
Minimum magnitude displayed is 2.5.

Coastal Water Temperatures

Place Temperature

Stations

Nearby Weather Stations

Station Location Temp. Windchill Dew Point Humidity Wind Precip. Elev Updated Type
                   

Watches & Warnings

Winter Storm Warning
Issued: 8:21 PM CST Feb. 7, 2016 – National Weather Service

... Winter Storm Warning remains in effect until noon CST Monday...

* expect occasional light snow through Monday morning.

* Total snow accumulations of up to 2 inches are expected.

* Winds gusting as high as 55 mph will cause widespread blowing
and drifting snow.

* Plan on slippery Road conditions.

Precautionary/preparedness actions...

A Winter Storm Warning for snow means severe winter weather
conditions are expected. If you must travel... keep an extra
flashlight... food... and water in your vehicle in case of an
emergency. The latest Road conditions for the state you are
calling from can be obtained by calling 5 1 1.